createdAt,value
2019-01-25T00:05:35.248Z,48.30
2019-01-25T00:08:03.338Z,52.30
2019-01-25T00:10:31.393Z,51.23
2019-01-25T00:12:59.462Z,48.77
2019-01-25T00:21:23.829Z,54.00
2019-01-25T00:26:40.651Z,54.03
2019-01-25T00:29:08.678Z,47.93
2019-01-25T00:31:36.743Z,56.47
2019-01-25T00:34:04.812Z,55.23
2019-01-25T00:36:32.819Z,56.33
2019-01-25T00:39:00.844Z,57.83
2019-01-25T00:41:28.904Z,59.13
2019-01-25T00:43:56.970Z,63.37
2019-01-25T00:46:25.038Z,63.40
2019-01-25T00:48:53.069Z,59.27
2019-01-25T00:54:15.448Z,60.23
2019-01-25T00:59:37.468Z,70.47
2019-01-25T01:02:05.526Z,66.03
2019-01-25T01:04:33.571Z,66.37
2019-01-25T01:09:50.444Z,70.70
2019-01-25T01:15:12.894Z,66.93
2019-01-25T01:20:34.905Z,67.97
2019-01-25T01:23:02.931Z,63.37
2019-01-25T01:28:33.408Z,62.90
2019-01-25T01:30:49.250Z,67.00
2019-01-25T01:33:17.316Z,69.30
2019-01-25T01:38:20.471Z,66.13
2019-01-25T01:40:48.499Z,72.00
2019-01-25T01:43:31.225Z,69.00
2019-01-25T01:45:46.309Z,68.77
2019-01-25T01:48:14.263Z,68.53
2019-01-25T01:53:36.187Z,63.83
2019-01-25T01:56:04.370Z,68.27
2019-01-25T01:58:32.408Z,65.47
2019-01-25T02:01:00.350Z,63.13
2019-01-25T02:03:28.475Z,67.63
2019-01-25T02:05:56.547Z,66.10
2019-01-25T02:08:24.658Z,70.87
2019-01-25T02:10:52.653Z,69.17
2019-01-25T02:13:20.789Z,68.10
2019-01-25T02:15:48.774Z,65.03
2019-01-25T02:18:16.844Z,65.70
2019-01-25T02:20:44.811Z,69.00
2019-01-25T02:23:12.833Z,64.77
2019-01-25T02:25:40.843Z,70.73
2019-01-25T02:28:08.885Z,72.03
2019-01-25T02:30:36.945Z,73.37
2019-01-25T02:33:04.943Z,67.90
2019-01-25T02:35:32.957Z,70.73
2019-01-25T02:38:00.944Z,63.73
2019-01-25T02:40:28.958Z,71.20
2019-01-25T02:42:56.962Z,66.73
2019-01-25T02:45:25.009Z,67.20
2019-01-25T02:47:53.073Z,68.77
2019-01-25T02:50:21.109Z,70.50
2019-01-25T02:52:49.054Z,70.03
2019-01-25T03:03:59.699Z,66.30
2019-01-25T03:09:21.270Z,66.13
2019-01-25T03:11:49.269Z,69.57
2019-01-25T03:14:17.264Z,70.53
2019-01-25T03:16:45.255Z,63.57
2019-01-25T03:19:13.244Z,73.47
2019-01-25T03:21:56.771Z,67.43
2019-01-25T03:24:11.284Z,70.00
2019-01-25T03:26:39.534Z,70.83
2019-01-25T03:29:07.702Z,74.87
2019-01-25T03:31:37.709Z,71.13
2019-01-25T03:34:05.734Z,72.73
2019-01-25T03:39:38.291Z,73.23
2019-01-25T03:42:06.441Z,66.83
2019-01-25T03:44:34.731Z,71.73
2019-01-25T03:47:02.973Z,70.33
2019-01-25T03:49:31.326Z,71.40
2019-01-25T03:51:59.524Z,72.23
2019-01-25T03:54:27.721Z,76.53
2019-01-25T03:56:55.957Z,72.67
2019-01-25T03:59:24.135Z,76.93
2019-01-25T04:01:52.309Z,74.07
2019-01-25T04:04:20.518Z,72.97
2019-01-25T04:06:48.718Z,69.20
2019-01-25T04:09:17.109Z,77.10
2019-01-25T04:11:45.359Z,74.60
2019-01-25T04:14:13.559Z,73.20
2019-01-25T04:16:41.840Z,83.27
2019-01-25T04:19:10.024Z,74.50
2019-01-25T04:21:38.640Z,83.87
2019-01-25T04:24:07.218Z,72.43
2019-01-25T04:26:36.459Z,79.80
2019-01-25T04:31:58.081Z,82.07
2019-01-25T04:34:26.090Z,85.07
2019-01-25T04:36:54.046Z,86.73
2019-01-25T04:39:22.111Z,83.23
2019-01-25T04:41:50.070Z,77.37
2019-01-25T04:44:18.048Z,80.07
2019-01-25T04:46:46.027Z,81.90
2019-01-25T04:49:14.019Z,84.40
2019-01-25T04:51:42.018Z,81.20
2019-01-25T04:54:10.054Z,78.10
2019-01-25T04:56:38.077Z,76.87
2019-01-25T04:59:06.092Z,78.77
2019-01-25T05:01:34.094Z,76.37
2019-01-25T05:04:02.114Z,77.60
2019-01-25T05:06:30.069Z,84.27
2019-01-25T05:08:58.095Z,84.70
2019-01-25T05:11:26.083Z,80.87
2019-01-25T05:13:54.070Z,86.43
2019-01-25T05:16:22.214Z,85.20
2019-01-25T05:18:50.169Z,80.23
2019-01-25T05:21:19.296Z,80.10
2019-01-25T05:23:47.275Z,87.90
2019-01-25T05:26:15.253Z,86.37
2019-01-25T05:28:43.172Z,90.23
2019-01-25T05:31:11.225Z,79.33
2019-01-25T05:33:39.191Z,82.63
2019-01-25T05:36:26.335Z,93.67
2019-01-25T05:42:01.880Z,82.20
2019-01-25T05:44:29.888Z,86.20
2019-01-25T05:46:57.829Z,86.03
2019-01-25T05:49:25.854Z,83.83
2019-01-25T05:51:53.838Z,88.53
2019-01-25T05:54:21.782Z,80.73
2019-01-25T05:56:49.752Z,84.13
2019-01-25T05:59:22.812Z,85.57
2019-01-25T06:01:50.732Z,86.60
2019-01-25T06:04:18.694Z,81.07
2019-01-25T06:06:46.638Z,85.17
2019-01-25T06:09:19.154Z,88.05
2019-01-25T06:11:47.153Z,80.97
2019-01-25T06:14:15.165Z,76.13
2019-01-25T06:16:43.173Z,78.73
2019-01-25T06:27:19.430Z,92.20
2019-01-25T06:29:47.448Z,85.60
2019-01-25T06:32:15.427Z,85.10
2019-01-25T06:34:43.481Z,79.83
2019-01-25T06:37:11.512Z,78.30
2019-01-25T06:39:39.499Z,76.03
2019-01-25T06:42:07.514Z,75.77
2019-01-25T06:47:24.092Z,75.87
2019-01-25T06:49:52.082Z,69.27
2019-01-25T06:52:20.017Z,70.90
2019-01-25T06:54:47.969Z,71.50
2019-01-25T07:02:54.994Z,79.03
2019-01-25T07:05:22.980Z,80.33
2019-01-25T07:11:17.606Z,78.67
2019-01-25T07:14:04.713Z,75.17
2019-01-25T07:16:32.742Z,78.52
2019-01-25T07:22:08.304Z,70.93
2019-01-25T07:24:36.336Z,72.60
2019-01-25T07:29:58.089Z,73.77
2019-01-25T07:35:20.068Z,75.27
2019-01-25T07:37:48.339Z,66.40
2019-01-25T07:40:17.761Z,69.37
2019-01-25T07:42:45.710Z,69.97
2019-01-25T07:45:13.759Z,75.37
2019-01-25T07:47:41.781Z,72.60
2019-01-25T07:50:09.885Z,71.30
2019-01-25T07:52:37.833Z,74.33
2019-01-25T07:55:06.326Z,75.50
2019-01-25T07:57:34.346Z,75.17
2019-01-25T08:00:02.310Z,66.47
2019-01-25T08:02:30.292Z,66.17
2019-01-25T08:04:58.313Z,71.87
2019-01-25T08:07:26.250Z,76.53
2019-01-25T08:09:54.279Z,67.90
2019-01-25T08:12:22.324Z,76.03
2019-01-25T08:14:50.382Z,76.30
2019-01-25T08:17:18.353Z,71.53
2019-01-25T08:19:46.460Z,75.23
2019-01-25T08:22:14.419Z,72.60
2019-01-25T08:24:42.418Z,73.73
2019-01-25T08:27:10.469Z,75.43
2019-01-25T08:29:38.516Z,76.70
2019-01-25T08:32:06.545Z,75.87
2019-01-25T08:34:34.542Z,73.40
2019-01-25T08:37:02.489Z,69.00
2019-01-25T08:39:30.558Z,67.83
2019-01-25T08:41:58.578Z,72.80
2019-01-25T08:44:26.524Z,68.70
2019-01-25T08:46:54.522Z,72.37
2019-01-25T08:49:22.518Z,71.53
2019-01-25T08:51:50.531Z,70.00
2019-01-25T08:54:18.508Z,74.80
2019-01-25T08:59:54.031Z,73.27
2019-01-25T09:05:29.608Z,65.63
2019-01-25T09:08:18.126Z,72.80
2019-01-25T09:10:46.586Z,68.30
2019-01-25T09:13:14.571Z,70.73
2019-01-25T09:15:42.752Z,69.93
2019-01-25T09:20:59.535Z,69.43
2019-01-25T09:23:27.983Z,64.27
2019-01-25T09:28:30.605Z,71.13
2019-01-25T09:30:59.015Z,70.07
2019-01-25T09:36:55.233Z,67.53
2019-01-25T09:42:31.395Z,71.97
2019-01-25T09:45:00.709Z,64.90
2019-01-25T09:50:08.994Z,67.03
2019-01-25T09:55:30.725Z,73.83
2019-01-25T09:57:59.567Z,65.83
2019-01-25T10:00:47.123Z,70.70
2019-01-25T10:03:15.715Z,70.80
2019-01-25T10:05:44.285Z,68.77
2019-01-25T10:08:12.486Z,68.10
2019-01-25T10:10:40.756Z,67.27
2019-01-25T10:13:08.931Z,68.70
2019-01-25T10:15:37.066Z,69.37
2019-01-25T10:18:05.268Z,69.80
2019-01-25T10:20:33.466Z,68.90
2019-01-25T10:23:01.656Z,65.43
2019-01-25T10:25:29.767Z,61.27
2019-01-25T10:27:57.994Z,68.50
2019-01-25T10:30:26.155Z,72.70
2019-01-25T10:32:54.320Z,61.93
2019-01-25T10:35:22.567Z,65.60
2019-01-25T10:37:50.700Z,61.87
2019-01-25T10:40:19.137Z,64.37
2019-01-25T10:42:52.981Z,70.03
2019-01-25T10:45:36.048Z,69.90
2019-01-25T10:51:11.568Z,61.20
2019-01-25T10:53:39.515Z,74.10
2019-01-25T10:56:07.493Z,70.10
2019-01-25T10:58:35.428Z,71.97
2019-01-25T11:04:11.766Z,96.43
2019-01-25T11:06:40.490Z,60.13
2019-01-25T11:09:09.212Z,100.93
2019-01-25T11:11:37.353Z,55.33
2019-01-25T11:16:59.320Z,58.07
2019-01-25T11:19:27.298Z,64.57
2019-01-25T11:21:55.259Z,71.43
2019-01-25T11:24:23.222Z,64.33
2019-01-25T11:26:51.178Z,63.50
2019-01-25T11:29:19.283Z,60.83
2019-01-25T11:34:41.569Z,58.23
2019-01-25T11:37:10.120Z,61.67
2019-01-25T11:39:38.472Z,66.93
2019-01-25T11:42:06.840Z,63.43
2019-01-25T11:44:35.734Z,61.57
2019-01-25T11:47:03.971Z,70.07
2019-01-25T11:49:46.133Z,57.80
2019-01-25T11:52:01.790Z,60.00
2019-01-25T11:57:23.779Z,69.03
2019-01-25T11:59:51.725Z,67.23
2019-01-25T12:02:21.032Z,57.03
2019-01-25T12:04:49.423Z,63.70
2019-01-25T12:07:17.480Z,61.67
2019-01-25T12:12:39.693Z,64.63
2019-01-25T12:15:09.466Z,72.00
2019-01-25T12:17:37.420Z,78.87
2019-01-25T12:23:01.016Z,69.90
2019-01-25T12:25:43.146Z,65.90
2019-01-25T12:27:58.718Z,71.30
2019-01-25T12:30:45.863Z,68.47
2019-01-25T12:36:02.869Z,65.67
2019-01-25T12:38:30.939Z,69.63
2019-01-25T12:40:58.987Z,65.10
2019-01-25T12:46:34.822Z,67.97
2019-01-25T12:49:16.564Z,71.97
2019-01-25T12:52:10.446Z,63.07
2019-01-25T12:54:57.834Z,62.90
2019-01-25T12:57:25.924Z,64.57
2019-01-25T13:03:02.792Z,66.53
2019-01-25T13:05:32.213Z,64.90
2019-01-25T13:08:00.518Z,64.00
2019-01-25T13:13:22.616Z,60.93
2019-01-25T13:15:50.560Z,61.67
2019-01-25T13:18:18.570Z,59.37
2019-01-25T13:20:46.775Z,55.30
2019-01-25T13:26:22.563Z,58.90
2019-01-25T13:29:10.294Z,61.30
2019-01-25T13:37:31.503Z,61.80
2019-01-25T13:54:43.586Z,78.10
2019-01-25T13:57:12.716Z,60.10
2019-01-25T14:00:18.976Z,63.67
2019-01-25T14:11:30.370Z,64.80
2019-01-25T14:16:59.709Z,67.47
2019-01-25T14:22:24.836Z,69.67
2019-01-25T14:24:53.318Z,63.97
2019-01-25T14:27:21.677Z,62.67
2019-01-25T14:30:09.057Z,80.10
2019-01-25T14:35:15.736Z,69.97
2019-01-25T14:41:06.093Z,65.60
2019-01-25T14:46:10.535Z,60.13
2019-01-25T14:48:57.676Z,63.63
2019-01-25T14:56:35.817Z,57.27
2019-01-25T14:59:22.950Z,57.67
2019-01-25T15:04:45.376Z,69.73
2019-01-25T15:12:57.070Z,66.77
2019-01-25T15:18:32.969Z,64.43
2019-01-25T15:24:08.601Z,65.13
2019-01-25T15:26:36.984Z,62.60
2019-01-25T15:29:04.985Z,66.07
2019-01-25T15:31:52.434Z,58.00
2019-01-25T15:34:20.421Z,63.63
2019-01-25T15:36:48.452Z,57.27
2019-01-25T15:39:16.429Z,63.50
2019-01-25T15:41:44.824Z,58.03
2019-01-25T15:47:01.470Z,55.80
2019-01-25T15:50:03.189Z,63.50
2019-01-25T15:52:19.602Z,56.33
2019-01-25T16:00:34.901Z,59.53
2019-01-25T16:03:21.925Z,62.83
2019-01-25T16:05:50.466Z,58.70
2019-01-25T16:11:12.306Z,56.57
2019-01-25T16:13:40.308Z,58.37
2019-01-25T16:16:08.304Z,61.83
2019-01-25T16:18:36.294Z,56.80
2019-01-25T16:21:04.309Z,60.73
2019-01-25T16:26:22.827Z,63.08
2019-01-25T16:31:48.204Z,62.40
2019-01-25T16:34:18.285Z,72.30
2019-01-25T16:36:47.182Z,74.33
2019-01-25T16:39:16.085Z,69.47
2019-01-25T16:41:44.837Z,68.87
2019-01-25T16:44:13.624Z,69.70
2019-01-25T16:46:42.666Z,75.20
2019-01-25T16:49:11.771Z,68.67
2019-01-25T16:51:40.946Z,78.37
2019-01-25T16:54:09.382Z,75.23
2019-01-25T16:56:37.943Z,69.30
2019-01-25T16:59:06.518Z,75.07
2019-01-25T17:01:53.926Z,73.17
2019-01-25T17:04:41.250Z,77.33
2019-01-25T17:19:04.935Z,79.53
2019-01-25T17:21:33.673Z,75.50
2019-01-25T17:33:00.135Z,74.73
2019-01-25T17:38:17.678Z,72.93
2019-01-25T17:40:47.188Z,78.17
2019-01-25T17:43:17.790Z,78.17
2019-01-25T17:49:12.741Z,72.23
2019-01-25T17:51:41.157Z,75.87
2019-01-25T17:56:49.078Z,72.40
2019-01-25T17:59:17.210Z,83.23
2019-01-25T18:01:45.445Z,76.93
2019-01-25T18:04:13.968Z,77.67
2019-01-25T18:06:42.004Z,74.53
2019-01-25T18:09:10.034Z,77.20
2019-01-25T18:11:38.022Z,79.77
2019-01-25T18:14:05.996Z,70.17
2019-01-25T18:16:34.120Z,71.93
2019-01-25T18:19:02.097Z,79.37
2019-01-25T18:21:30.175Z,73.33
2019-01-25T18:23:58.305Z,77.00
2019-01-25T18:26:26.347Z,76.10
2019-01-25T18:32:03.722Z,78.60
2019-01-25T18:37:25.755Z,79.13
2019-01-25T18:39:53.734Z,78.13
2019-01-25T18:42:21.778Z,75.97
2019-01-25T18:44:56.514Z,80.07
2019-01-25T18:47:19.460Z,81.50
2019-01-25T18:49:47.511Z,73.03
2019-01-25T18:55:23.476Z,79.43
2019-01-25T18:57:51.470Z,77.17
2019-01-25T19:00:19.969Z,75.67
2019-01-25T19:02:47.927Z,79.10
2019-01-25T19:05:16.009Z,74.70
2019-01-25T19:07:44.218Z,75.10
2019-01-25T19:13:07.754Z,69.00
2019-01-25T19:18:43.274Z,65.93
2019-01-25T19:24:05.631Z,63.37
2019-01-25T19:26:33.638Z,63.87
2019-01-25T19:32:20.865Z,68.27
2019-01-25T19:34:38.767Z,57.57
2019-01-25T19:37:06.760Z,52.37
2019-01-25T19:39:34.777Z,48.70
2019-01-25T19:45:11.952Z,55.10
2019-01-25T19:47:54.307Z,50.83
2019-01-25T19:50:10.826Z,49.23
2019-01-25T19:52:38.827Z,59.53
2019-01-25T19:55:28.418Z,49.40
2019-01-25T19:57:56.490Z,48.73
2019-01-25T20:00:28.382Z,45.40
2019-01-25T20:02:56.404Z,66.07
2019-01-25T20:08:18.918Z,57.98
2019-01-25T20:13:41.314Z,47.30
2019-01-25T20:16:09.288Z,49.20
2019-01-25T20:21:38.310Z,51.27
2019-01-25T20:24:06.274Z,58.17
2019-01-25T20:26:34.716Z,45.67
2019-01-25T20:31:56.674Z,48.33
2019-01-25T20:34:25.110Z,46.57
2019-01-25T20:37:12.177Z,54.27
2019-01-25T20:39:59.431Z,48.50
2019-01-25T20:45:36.182Z,43.17
2019-01-25T20:51:11.750Z,47.43
2019-01-25T20:56:15.346Z,41.50
2019-01-25T20:59:02.534Z,47.77
2019-01-25T21:04:24.847Z,40.53
2019-01-25T21:07:11.983Z,46.67
2019-01-25T21:13:02.037Z,47.13
2019-01-25T21:18:12.277Z,46.47
2019-01-25T21:20:41.375Z,43.20
2019-01-25T21:26:03.915Z,47.47
2019-01-25T21:28:31.945Z,38.43
2019-01-25T21:34:08.464Z,48.73
2019-01-25T21:36:36.598Z,47.33
2019-01-25T21:39:06.662Z,45.73
2019-01-25T21:44:54.133Z,52.93
2019-01-25T21:50:35.269Z,41.97
2019-01-25T21:53:04.881Z,43.27
2019-01-25T21:55:32.685Z,50.43
2019-01-25T22:03:39.432Z,41.63
2019-01-25T22:06:27.108Z,45.17
2019-01-25T22:08:55.129Z,49.17
2019-01-25T22:17:11.523Z,45.20
2019-01-25T22:19:39.525Z,44.70
2019-01-25T22:25:15.128Z,51.70
2019-01-25T22:27:43.305Z,42.20
2019-01-25T22:30:12.500Z,44.23
2019-01-25T22:32:40.454Z,49.90
2019-01-25T22:35:08.400Z,50.10
2019-01-25T22:37:36.495Z,46.33
2019-01-25T22:43:12.272Z,54.23
2019-01-25T22:45:40.201Z,46.33
2019-01-25T22:51:02.140Z,46.70
2019-01-25T22:53:30.166Z,52.57
2019-01-25T22:55:58.126Z,51.20
2019-01-25T22:58:26.131Z,50.57
2019-01-25T23:01:13.377Z,51.77
2019-01-25T23:03:53.009Z,52.67
2019-01-25T23:06:52.228Z,47.23
2019-01-25T23:09:29.280Z,43.90
2019-01-25T23:15:05.390Z,56.13
2019-01-25T23:20:41.197Z,50.67
2019-01-25T23:23:09.433Z,54.23
2019-01-25T23:25:37.745Z,50.10
2019-01-25T23:28:05.951Z,52.27
2019-01-25T23:30:34.214Z,53.73
2019-01-25T23:33:02.422Z,52.97
2019-01-25T23:35:30.591Z,46.90
2019-01-25T23:37:58.790Z,56.87
2019-01-25T23:40:27.279Z,50.97
2019-01-25T23:42:55.481Z,55.60
2019-01-25T23:45:23.903Z,51.40
2019-01-25T23:47:52.212Z,49.53
2019-01-25T23:50:39.306Z,53.40
2019-01-25T23:53:07.268Z,54.93
2019-01-25T23:55:35.297Z,50.40
2019-01-25T23:58:03.390Z,51.00
